Time;durP1;ratioP1;P1;durP2;ratioP2;P2;SDS_P1;SDS_P2;PMS_P1;PMS_P2;Temp;Humidity;BMP_temperature;BMP_pressure;BME280_temperature;BME280_humidity;BME280_pressure;Samples;Min_cycle;Max_cycle;Signal;HPM_P1;HPM_P2
2022/03/22 00:02:09;;;;;;;21.33;7.22;;;8.00;62.70;;;;;;6279364;28;20066;-80
2022/03/22 00:05:11;;;;;;;10.82;6.35;;;8.00;62.80;;;;;;6277655;28;20475;-81
2022/03/22 00:08:13;;;;;;;18.15;8.95;;;8.00;62.80;;;;;;6279473;28;20136;-82
2022/03/22 00:11:15;;;;;;;15.88;6.70;;;8.00;63.30;;;;;;6288214;28;20582;-81
2022/03/22 00:14:18;;;;;;;23.85;10.35;;;7.90;63.50;;;;;;6281624;28;20041;-82
2022/03/22 00:17:20;;;;;;;16.92;7.07;;;7.90;63.90;;;;;;6279465;28;21082;-81
2022/03/22 00:20:23;;;;;;;13.65;6.38;;;7.80;63.60;;;;;;6279650;28;20064;-81
2022/03/22 00:23:25;;;;;;;11.77;7.22;;;7.80;63.90;;;;;;6282188;28;20063;-81
2022/03/22 00:26:27;;;;;;;20.88;6.88;;;7.70;63.50;;;;;;6281417;28;20044;-82
2022/03/22 00:29:30;;;;;;;17.00;7.75;;;7.70;63.40;;;;;;6281208;28;20132;-82
2022/03/22 00:32:31;;;;;;;10.70;6.28;;;7.70;62.90;;;;;;6319945;22;20535;-84
2022/03/22 00:35:36;;;;;;;17.45;7.45;;;7.80;62.90;;;;;;6327636;28;20044;-83
2022/03/22 00:38:38;;;;;;;18.35;7.55;;;7.70;62.90;;;;;;6325937;28;20048;-83
2022/03/22 00:41:39;;;;;;;17.48;7.00;;;7.70;62.90;;;;;;6321631;28;20067;-82
2022/03/22 00:44:42;;;;;;;15.98;7.35;;;7.70;63.00;;;;;;6300325;28;20104;-81
2022/03/22 00:47:46;;;;;;;17.40;7.40;;;7.70;63.00;;;;;;6303218;28;20123;-82
2022/03/22 00:50:48;;;;;;;13.18;6.38;;;7.60;63.30;;;;;;6299231;28;20112;-83
2022/03/22 00:53:51;;;;;;;13.55;7.13;;;7.50;63.40;;;;;;6292697;28;20072;-82
2022/03/22 00:56:54;;;;;;;16.23;7.78;;;7.40;63.50;;;;;;6300413;28;20127;-82
2022/03/22 01:00:04;;;;;;;16.40;8.18;;;7.40;64.40;;;;;;6296867;28;20048;-80
2022/03/22 01:03:08;;;;;;;21.52;7.70;;;7.30;64.80;;;;;;6275437;28;20060;-82
2022/03/22 01:06:10;;;;;;;15.10;7.90;;;7.20;65.30;;;;;;6283117;28;20502;-81
2022/03/22 01:09:12;;;;;;;14.10;7.60;;;7.00;65.80;;;;;;6298417;28;20047;-81
2022/03/22 01:12:13;;;;;;;15.13;7.70;;;6.80;66.80;;;;;;6299126;28;20041;-82
2022/03/22 01:15:18;;;;;;;15.18;7.63;;;6.70;67.10;;;;;;6298736;28;20048;-81
2022/03/22 01:18:21;;;;;;;13.63;6.78;;;6.50;67.40;;;;;;6299441;28;20410;-82
2022/03/22 01:21:23;;;;;;;19.50;6.88;;;6.40;67.60;;;;;;6300077;28;20057;-81
2022/03/22 01:24:25;;;;;;;17.77;8.15;;;6.30;67.60;;;;;;6299467;28;20040;-81
2022/03/22 01:27:27;;;;;;;18.45;7.22;;;6.10;68.00;;;;;;6300021;28;20452;-82
2022/03/22 01:30:31;;;;;;;13.65;6.68;;;6.00;68.90;;;;;;6300433;28;20048;-81
2022/03/22 01:33:32;;;;;;;14.52;7.55;;;5.80;70.10;;;;;;6314168;28;20628;-80
2022/03/22 01:36:34;;;;;;;16.08;7.85;;;5.70;70.70;;;;;;6304347;28;20289;-83
2022/03/22 01:39:36;;;;;;;15.85;6.88;;;5.50;70.80;;;;;;6307212;28;20131;-82
2022/03/22 01:42:39;;;;;;;15.52;7.72;;;5.40;71.00;;;;;;6300831;28;20070;-82
2022/03/22 01:45:42;;;;;;;15.52;7.45;;;5.30;71.50;;;;;;6293828;28;20541;-81
2022/03/22 01:48:43;;;;;;;13.63;8.30;;;5.20;72.00;;;;;;6294963;28;20514;-80
2022/03/22 01:51:48;;;;;;;20.23;8.48;;;5.10;72.20;;;;;;6295308;28;20135;-82
2022/03/22 01:54:51;;;;;;;16.13;7.75;;;5.10;72.50;;;;;;6295013;28;20045;-81
2022/03/22 01:57:54;;;;;;;15.40;7.40;;;4.90;73.40;;;;;;6295778;28;20121;-82
2022/03/22 02:07:35;;;;;;;17.05;8.20;;;4.70;73.60;;;;;;6296022;28;20052;-80
2022/03/22 02:10:36;;;;;;;13.65;8.25;;;4.60;73.90;;;;;;6295549;28;20068;-80
2022/03/22 02:13:38;;;;;;;17.48;8.93;;;4.50;74.10;;;;;;6295127;28;20045;-81
2022/03/22 02:16:41;;;;;;;17.52;7.60;;;4.40;74.50;;;;;;6295056;28;20044;-81
2022/03/22 02:19:43;;;;;;;25.00;8.45;;;4.30;74.10;;;;;;6296306;28;20052;-80
2022/03/22 02:22:51;;;;;;;18.13;8.25;;;4.30;74.00;;;;;;6295545;28;20128;-81
2022/03/22 02:25:54;;;;;;;;;;;4.20;74.80;;;;;;6296328;28;20532;-80
2022/03/22 02:28:56;;;;;;;10.35;6.30;;;4.20;74.80;;;;;;6296567;28;19920;-81
2022/03/22 02:31:58;;;;;;;16.33;9.05;;;4.20;74.30;;;;;;6295898;28;20110;-81
2022/03/22 02:35:00;;;;;;;16.85;8.65;;;4.10;74.30;;;;;;6297865;28;20166;-82
2022/03/22 02:38:01;;;;;;;19.42;9.30;;;4.00;74.50;;;;;;6298294;28;20045;-83
2022/03/22 02:41:06;;;;;;;20.20;8.35;;;4.00;75.10;;;;;;6297748;28;20048;-82
2022/03/22 02:44:10;;;;;;;17.75;7.40;;;3.90;75.70;;;;;;6298241;28;20494;-82
2022/03/22 02:47:12;;;;;;;17.92;7.70;;;3.90;76.00;;;;;;6297527;28;20135;-82
2022/03/22 02:50:14;;;;;;;19.90;8.52;;;3.90;76.00;;;;;;6300183;28;20094;-83
2022/03/22 02:53:15;;;;;;;15.57;8.95;;;3.90;76.00;;;;;;6301153;28;20051;-82
2022/03/22 02:56:19;;;;;;;16.63;8.55;;;3.80;76.00;;;;;;6303412;28;20041;-83
2022/03/22 02:59:21;;;;;;;22.35;8.10;;;3.70;76.40;;;;;;6303432;28;20048;-83
2022/03/22 03:02:23;;;;;;;18.45;9.02;;;3.60;76.10;;;;;;6303686;28;20040;-83
2022/03/22 03:05:25;;;;;;;17.17;8.90;;;3.60;76.80;;;;;;6303267;28;20399;-82
2022/03/22 03:08:27;;;;;;;24.67;9.18;;;3.60;76.70;;;;;;6303465;28;20066;-82
2022/03/22 03:11:30;;;;;;;14.93;8.82;;;3.50;76.80;;;;;;6304270;28;20053;-82
2022/03/22 03:14:43;;;;;;;27.92;9.85;;;3.40;77.00;;;;;;6302699;28;20047;-81
2022/03/22 03:17:44;;;;;;;19.83;9.40;;;3.40;77.40;;;;;;6302068;28;20711;-81
2022/03/22 03:20:46;;;;;;;19.88;9.88;;;3.30;77.70;;;;;;6303931;28;20048;-83
2022/03/22 03:23:48;;;;;;;18.00;10.00;;;3.30;77.80;;;;;;6303823;28;20044;-83
2022/03/22 03:26:52;;;;;;;22.27;10.38;;;3.20;78.30;;;;;;6303447;28;20129;-82
2022/03/22 03:29:54;;;;;;;25.85;8.80;;;3.20;78.70;;;;;;6304130;28;20131;-82
2022/03/22 03:32:56;;;;;;;20.20;9.30;;;3.10;78.70;;;;;;6304074;28;20128;-82
2022/03/22 03:35:58;;;;;;;21.48;8.50;;;3.10;79.10;;;;;;6303127;28;20048;-82
2022/03/22 03:39:01;;;;;;;20.20;9.60;;;3.00;79.60;;;;;;6304876;28;20041;-80
2022/03/22 03:42:05;;;;;;;27.50;10.40;;;3.00;80.00;;;;;;6304354;28;20117;-82
2022/03/22 03:48:26;;;;;;;22.33;8.70;;;2.80;81.00;;;;;;6301694;28;20068;-81
2022/03/22 03:51:28;;;;;;;21.48;9.25;;;2.70;80.80;;;;;;6303508;28;20131;-80
2022/03/22 03:54:30;;;;;;;17.80;9.00;;;2.60;81.20;;;;;;6300253;28;20048;-81
2022/03/22 03:57:34;;;;;;;24.73;10.98;;;2.60;81.50;;;;;;6301248;28;20589;-82
2022/03/22 04:00:36;;;;;;;23.55;9.52;;;2.50;81.90;;;;;;6301182;28;20049;-82
2022/03/22 04:03:39;;;;;;;19.23;9.05;;;2.50;82.50;;;;;;6302438;28;20049;-81
2022/03/22 04:06:41;;;;;;;22.90;9.95;;;2.40;82.60;;;;;;6301232;28;20048;-81
2022/03/22 04:09:43;;;;;;;17.67;8.90;;;2.40;82.60;;;;;;6301714;28;20509;-81
2022/03/22 04:12:46;;;;;;;21.33;9.52;;;2.30;82.80;;;;;;6301825;28;20045;-80
2022/03/22 04:15:47;;;;;;;21.10;10.40;;;2.30;82.50;;;;;;6300835;28;20053;-82
2022/03/22 04:18:50;;;;;;;32.10;10.68;;;2.30;82.50;;;;;;6301498;28;20485;-81
2022/03/22 04:21:52;;;;;;;17.42;10.00;;;2.20;82.30;;;;;;6300777;28;20413;-82
2022/03/22 04:24:54;;;;;;;17.88;10.65;;;2.20;82.40;;;;;;6300311;28;20458;-82
2022/03/22 04:34:35;;;;;;;24.65;9.95;;;2.10;81.90;;;;;;6299423;28;20040;-82
2022/03/22 04:37:38;;;;;;;20.60;11.10;;;2.20;83.10;;;;;;6298206;28;20456;-83
2022/03/22 04:40:40;;;;;;;22.75;9.60;;;2.10;83.30;;;;;;6298200;28;20060;-83
2022/03/22 04:43:43;;;;;;;19.85;10.32;;;2.10;82.90;;;;;;6299428;28;20048;-81
2022/03/22 04:46:46;;;;;;;20.92;10.10;;;2.10;83.40;;;;;;6298878;28;20119;-82
2022/03/22 04:49:48;;;;;;;21.60;10.70;;;2.10;83.50;;;;;;6287046;28;20045;-83
2022/03/22 04:59:32;;;;;;;15.75;9.35;;;2.10;84.80;;;;;;6287006;28;20094;-80
2022/03/22 05:02:34;;;;;;;23.25;10.07;;;2.10;84.60;;;;;;6296063;28;20102;-81
2022/03/22 05:08:55;;;;;;;21.30;9.93;;;2.10;84.50;;;;;;6297752;28;20036;-80
2022/03/22 05:11:57;;;;;;;25.00;10.98;;;2.00;84.80;;;;;;6297712;28;20052;-81
2022/03/22 05:15:00;;;;;;;23.23;10.18;;;1.90;85.00;;;;;;6295802;28;20108;-81
2022/03/22 05:18:04;;;;;;;21.38;10.15;;;1.90;85.20;;;;;;6295522;28;20505;-81
2022/03/22 05:21:06;;;;;;;18.10;9.68;;;1.90;85.20;;;;;;6295769;28;20059;-81
2022/03/22 05:24:08;;;;;;;21.52;11.40;;;2.00;85.10;;;;;;6295261;28;20044;-80
2022/03/22 05:27:10;;;;;;;23.48;10.65;;;1.90;84.90;;;;;;6295506;28;20135;-80
2022/03/22 05:30:14;;;;;;;18.02;10.05;;;1.90;85.30;;;;;;6295950;28;20051;-80
2022/03/22 05:33:16;;;;;;;20.13;10.48;;;1.90;85.80;;;;;;6297663;28;20532;-82
2022/03/22 05:36:18;;;;;;;18.88;9.05;;;2.00;85.50;;;;;;6302046;28;20041;-81
2022/03/22 05:39:20;;;;;;;20.98;10.18;;;2.00;85.30;;;;;;6297313;28;20048;-80
2022/03/22 05:42:22;;;;;;;19.02;9.80;;;2.00;85.30;;;;;;6295339;28;20127;-81
2022/03/22 05:45:26;;;;;;;30.48;11.02;;;2.10;85.80;;;;;;6295222;28;20443;-81
2022/03/22 05:48:29;;;;;;;20.15;10.30;;;2.10;85.50;;;;;;6301804;28;20059;-81
2022/03/22 05:51:30;;;;;;;22.48;9.73;;;2.10;85.30;;;;;;6308490;28;20041;-80
2022/03/22 05:54:33;;;;;;;19.08;9.63;;;2.20;85.00;;;;;;6304201;28;20095;-82
2022/03/22 05:57:34;;;;;;;18.90;10.32;;;2.30;84.70;;;;;;6304877;28;20704;-82
2022/03/22 06:00:37;;;;;;;21.75;10.77;;;2.40;84.40;;;;;;6303023;28;20100;-82
2022/03/22 06:03:39;;;;;;;25.67;12.43;;;2.50;84.50;;;;;;6305332;28;20040;-81
2022/03/22 06:06:41;;;;;;;29.10;11.48;;;2.50;84.10;;;;;;6303539;28;20481;-81
2022/03/22 06:09:43;;;;;;;23.73;12.05;;;2.70;88.50;;;;;;6298790;28;20041;-81
2022/03/22 06:12:46;;;;;;;22.73;11.23;;;2.90;85.10;;;;;;6295924;28;20055;-81
2022/03/22 06:15:50;;;;;;;19.88;9.90;;;3.00;84.40;;;;;;6295288;28;20386;-80
2022/03/22 06:18:52;;;;;;;35.17;11.05;;;3.20;84.00;;;;;;6298407;28;20045;-81
2022/03/22 06:21:54;;;;;;;25.35;10.45;;;3.30;83.50;;;;;;6298638;28;20124;-81
2022/03/22 06:24:56;;;;;;;24.05;11.27;;;3.50;83.00;;;;;;6296563;28;20110;-80
2022/03/22 06:27:58;;;;;;;17.08;9.07;;;3.70;82.70;;;;;;6299914;28;20048;-82
2022/03/22 06:31:01;;;;;;;21.48;10.80;;;3.80;82.40;;;;;;6305491;28;20045;-80
2022/03/22 06:34:03;;;;;;;20.20;9.65;;;4.10;82.10;;;;;;6313904;22;20048;-82
2022/03/22 06:37:06;;;;;;;19.45;10.32;;;4.20;81.70;;;;;;6258666;28;20061;-81
2022/03/22 06:40:09;;;;;;;20.70;11.55;;;4.30;81.40;;;;;;6258802;28;20049;-82
2022/03/22 06:43:14;;;;;;;18.25;9.15;;;4.60;81.20;;;;;;6265515;28;20100;-80
2022/03/22 06:46:18;;;;;;;25.63;9.90;;;4.80;80.80;;;;;;6271976;28;20112;-81
2022/03/22 06:49:19;;;;;;;22.83;9.63;;;4.90;80.30;;;;;;6264528;28;20052;-82
2022/03/22 06:52:21;;;;;;;19.08;9.77;;;5.10;79.90;;;;;;6258245;28;20041;-81
2022/03/22 06:55:23;;;;;;;20.42;8.98;;;5.40;79.70;;;;;;6260246;28;20056;-81
2022/03/22 06:58:27;;;;;;;20.90;10.27;;;5.60;79.30;;;;;;6259658;28;20705;-81
2022/03/22 07:01:31;;;;;;;22.05;11.02;;;5.80;78.70;;;;;;6258453;28;20073;-82
2022/03/22 07:04:33;;;;;;;18.80;8.48;;;6.10;78.30;;;;;;6257990;28;20129;-82
2022/03/22 07:07:35;;;;;;;17.45;8.20;;;6.50;77.90;;;;;;6260060;28;20211;-82
2022/03/22 07:10:37;;;;;;;21.58;10.30;;;6.90;77.40;;;;;;6260261;28;20045;-83
2022/03/22 07:13:39;;;;;;;21.88;10.18;;;7.20;76.40;;;;;;6259216;28;20045;-83
2022/03/22 07:16:42;;;;;;;20.98;10.13;;;7.70;75.50;;;;;;6257140;28;20502;-83
2022/03/22 07:19:44;;;;;;;15.80;8.45;;;8.10;73.40;;;;;;6256614;28;20060;-81
2022/03/22 07:22:46;;;;;;;20.05;8.70;;;8.60;71.30;;;;;;6259340;28;20049;-81
2022/03/22 07:25:47;;;;;;;20.30;9.70;;;9.10;70.00;;;;;;6258074;28;20049;-83
2022/03/22 07:28:49;;;;;;;19.73;10.15;;;9.80;67.40;;;;;;6256026;28;20081;-83
2022/03/22 07:31:53;;;;;;;18.40;9.50;;;10.80;64.50;;;;;;6255989;28;20655;-82
2022/03/22 07:34:55;;;;;;;15.23;7.32;;;12.50;60.20;;;;;;6255353;28;20470;-82
2022/03/22 07:37:56;;;;;;;17.60;7.20;;;14.70;53.70;;;;;;6255877;28;20055;-82
2022/03/22 07:40:58;;;;;;;16.73;8.40;;;16.70;47.30;;;;;;6228904;28;20041;-82
2022/03/22 07:44:01;;;;;;;14.07;7.63;;;18.30;43.30;;;;;;6255216;28;20053;-81
2022/03/22 07:47:04;;;;;;;12.57;6.95;;;19.30;39.80;;;;;;6253699;28;20056;-81
2022/03/22 07:57:46;;;;;;;17.33;6.80;;;18.50;38.10;;;;;;6298275;27;20047;-81
2022/03/22 08:01:05;;;;;;;13.80;7.22;;;17.60;40.70;;;;;;6368083;27;20082;-82
2022/03/22 08:04:28;;;;;;;13.52;6.75;;;17.00;41.30;;;;;;6394975;27;20043;-81
2022/03/22 08:07:33;;;;;;;12.45;7.93;;;16.60;41.80;;;;;;6402259;27;20065;-79
2022/03/22 08:10:35;;;;;;;11.68;6.80;;;16.60;41.90;;;;;;6393372;27;20042;-80
2022/03/22 08:13:37;;;;;;;15.93;7.05;;;16.80;41.40;;;;;;6374407;27;20468;-80
2022/03/22 08:16:40;;;;;;;12.85;7.00;;;16.90;40.90;;;;;;6401596;27;20126;-81
2022/03/22 08:19:44;;;;;;;15.95;6.95;;;17.10;40.60;;;;;;6404239;27;20047;-81
2022/03/22 08:22:50;;;;;;;14.32;6.07;;;17.20;40.30;;;;;;6403047;27;20082;-81
2022/03/22 08:25:52;;;;;;;11.75;6.63;;;17.40;39.80;;;;;;6402496;27;20111;-82
2022/03/22 08:28:54;;;;;;;11.57;7.07;;;18.00;39.10;;;;;;6402586;27;20502;-81
2022/03/22 08:31:56;;;;;;;14.05;8.25;;;18.70;37.60;;;;;;6402994;27;20495;-81
2022/03/22 08:39:04;;;;;;;24.02;8.18;;;20.20;35.00;;;;;;6250790;28;20064;-82
2022/03/22 08:42:06;;;;;;;10.05;6.47;;;20.10;36.00;;;;;;6301594;28;20056;-82
2022/03/22 08:45:26;;;;;;;13.45;7.82;;;20.00;35.60;;;;;;6305734;28;20066;-82
2022/03/22 08:57:39;;;;;;;15.30;7.70;;;22.10;33.10;;;;;;6105830;28;20075;-82
2022/03/22 09:09:48;;;;;;;12.98;7.68;;;22.40;31.70;;;;;;6139371;29;20051;-78
2022/03/22 09:12:59;;;;;;;11.18;6.25;;;22.60;30.70;;;;;;6196446;28;20041;-80
2022/03/22 09:16:01;;;;;;;9.90;6.45;;;22.70;30.30;;;;;;6300338;28;20439;-80
2022/03/22 09:19:03;;;;;;;12.25;6.30;;;22.90;30.10;;;;;;6315142;28;20073;-80
2022/03/22 09:22:07;;;;;;;11.13;6.53;;;23.20;29.90;;;;;;6325458;28;20630;-81
2022/03/22 09:25:11;;;;;;;9.30;5.35;;;23.50;29.00;;;;;;6325239;28;20474;-81
2022/03/22 09:28:13;;;;;;;17.25;7.53;;;23.80;28.70;;;;;;6323773;28;20044;-82
2022/03/22 09:31:15;;;;;;;11.98;6.18;;;24.00;28.50;;;;;;6325359;28;20051;-80
2022/03/22 09:34:16;;;;;;;11.60;6.50;;;24.30;28.80;;;;;;6324303;28;20044;-81
2022/03/22 09:37:18;;;;;;;19.20;7.38;;;24.70;28.90;;;;;;6325015;28;20386;-81
2022/03/22 09:40:22;;;;;;;16.63;7.55;;;24.90;28.60;;;;;;6323842;28;20044;-83
2022/03/22 09:43:24;;;;;;;11.82;6.90;;;25.00;28.50;;;;;;6323834;28;20047;-81
2022/03/22 09:46:26;;;;;;;15.88;6.85;;;24.70;28.50;;;;;;6323863;28;20398;-82
2022/03/22 09:49:28;;;;;;;9.50;7.13;;;24.20;28.80;;;;;;6326013;28;20052;-81
2022/03/22 09:52:30;;;;;;;14.40;7.65;;;23.40;29.30;;;;;;6322180;28;20052;-80
2022/03/22 09:55:35;;;;;;;16.92;7.43;;;22.70;30.00;;;;;;6323400;28;20054;-78
2022/03/22 09:58:37;;;;;;;11.55;7.25;;;22.20;30.60;;;;;;6324486;28;20044;-79
2022/03/22 10:01:39;;;;;;;13.50;7.57;;;21.80;31.20;;;;;;6326648;28;20140;-80
2022/03/22 10:04:42;;;;;;;15.63;7.38;;;21.50;31.20;;;;;;6328595;28;20520;-79
2022/03/22 10:07:44;;;;;;;10.68;6.50;;;21.40;31.60;;;;;;6329918;28;20055;-78
2022/03/22 10:10:55;;;;;;;12.43;6.63;;;21.40;31.80;;;;;;6331080;28;20044;-81
2022/03/22 10:13:57;;;;;;;18.23;7.07;;;21.50;31.70;;;;;;6329520;28;20044;-80
2022/03/22 10:16:59;;;;;;;17.08;7.60;;;21.60;31.60;;;;;;6328455;28;20116;-81
2022/03/22 10:20:01;;;;;;;12.88;5.70;;;21.60;31.10;;;;;;6331629;28;20051;-80
2022/03/22 10:23:05;;;;;;;12.07;6.97;;;21.60;31.00;;;;;;6331715;28;20047;-82
2022/03/22 10:26:09;;;;;;;12.15;6.88;;;21.70;31.10;;;;;;6329945;28;20214;-79
2022/03/22 10:29:12;;;;;;;11.50;6.28;;;21.80;31.00;;;;;;6333996;28;20051;-81
2022/03/22 10:32:14;;;;;;;13.57;7.53;;;22.00;30.90;;;;;;6337393;28;20044;-80
2022/03/22 10:35:17;;;;;;;10.48;5.95;;;22.10;30.30;;;;;;6330384;28;20055;-81
2022/03/22 10:38:19;;;;;;;13.73;7.53;;;22.20;30.30;;;;;;6336289;28;20047;-79
2022/03/22 10:41:27;;;;;;;11.18;5.90;;;22.30;30.00;;;;;;6333360;28;20048;-82
2022/03/22 10:44:28;;;;;;;9.02;6.35;;;22.40;30.00;;;;;;6329548;28;20082;-81
2022/03/22 10:47:30;;;;;;;12.43;6.45;;;22.70;30.00;;;;;;6329084;28;20048;-82
2022/03/22 10:50:32;;;;;;;14.95;7.00;;;22.90;29.80;;;;;;6329627;28;20123;-80
2022/03/22 10:53:36;;;;;;;11.88;5.68;;;23.10;29.80;;;;;;6324496;28;20040;-81
2022/03/22 10:56:44;;;;;;;15.00;6.53;;;23.30;30.00;;;;;;6325647;28;20448;-80
2022/03/22 10:59:48;;;;;;;15.82;6.28;;;23.60;30.00;;;;;;6328627;28;20123;-81
2022/03/22 11:02:52;;;;;;;10.93;5.78;;;23.70;29.30;;;;;;6329571;28;20051;-81
2022/03/22 11:05:55;;;;;;;13.15;7.00;;;23.80;29.50;;;;;;6327681;28;20047;-82
2022/03/22 11:08:57;;;;;;;13.18;6.82;;;23.90;29.20;;;;;;6330115;28;20040;-80
2022/03/22 11:12:01;;;;;;;10.73;5.63;;;24.10;29.20;;;;;;6327656;28;20060;-81
2022/03/22 11:15:05;;;;;;;16.40;7.13;;;24.30;28.70;;;;;;6325103;28;20056;-80
2022/03/22 11:18:08;;;;;;;16.73;7.45;;;24.50;29.10;;;;;;6326035;28;20058;-80
2022/03/22 11:21:16;;;;;;;11.60;7.32;;;24.60;28.20;;;;;;6326421;28;20123;-81
2022/03/22 11:24:24;;;;;;;17.30;6.88;;;24.80;28.00;;;;;;6325129;28;20051;-81
2022/03/22 11:27:30;;;;;;;11.38;6.68;;;24.90;27.90;;;;;;6327399;28;20044;-80
2022/03/22 11:30:33;;;;;;;11.43;6.32;;;25.00;27.70;;;;;;6325601;28;20044;-80
2022/03/22 11:37:00;;;;;;;12.02;5.90;;;25.20;27.20;;;;;;6325901;28;20044;-81
2022/03/22 11:43:44;;;;;;;9.70;5.85;;;25.40;27.10;;;;;;6247741;28;20124;-80
2022/03/22 11:46:46;;;;;;;13.15;7.43;;;25.50;26.80;;;;;;6321818;28;20060;-81
2022/03/22 11:49:50;;;;;;;11.02;6.57;;;25.60;26.70;;;;;;6321761;28;20066;-80
2022/03/22 11:53:00;;;;;;;15.18;7.35;;;25.70;26.80;;;;;;6324255;28;20394;-81
2022/03/22 11:56:02;;;;;;;11.68;6.22;;;25.70;26.50;;;;;;6322966;28;20127;-80
2022/03/22 11:59:05;;;;;;;11.35;7.03;;;25.80;26.00;;;;;;6324890;28;20123;-79
2022/03/22 12:02:15;;;;;;;15.52;6.43;;;25.80;26.40;;;;;;6324863;28;20736;-81
2022/03/22 12:05:18;;;;;;;10.25;6.80;;;25.90;25.90;;;;;;6327525;28;20044;-80
2022/03/22 12:08:20;;;;;;;12.88;7.50;;;26.00;26.00;;;;;;6323245;28;20048;-81
2022/03/22 12:11:22;;;;;;;12.27;6.97;;;26.10;25.60;;;;;;6324695;28;20070;-79
2022/03/22 12:14:34;;;;;;;11.68;6.85;;;26.10;24.80;;;;;;6322891;28;20040;-79
2022/03/22 12:17:37;;;;;;;16.48;7.78;;;26.10;25.50;;;;;;6324480;28;20050;-80
2022/03/22 12:20:40;;;;;;;20.30;5.93;;;26.00;25.00;;;;;;6324029;28;20043;-79
2022/03/22 12:23:41;;;;;;;10.43;5.97;;;25.90;25.70;;;;;;6325144;28;20051;-81
2022/03/22 12:26:43;;;;;;;11.48;6.53;;;26.00;25.30;;;;;;6322784;28;20044;-79
2022/03/22 12:29:47;;;;;;;16.08;8.27;;;26.20;25.30;;;;;;6325420;28;20063;-80
2022/03/22 12:32:51;;;;;;;8.50;5.90;;;26.40;24.60;;;;;;6354822;22;20050;-80
2022/03/22 12:35:53;;;;;;;14.45;6.72;;;26.40;25.40;;;;;;6373957;27;20047;-79
2022/03/22 12:38:55;;;;;;;15.43;5.78;;;26.50;25.30;;;;;;6375058;27;20143;-80
2022/03/22 12:41:57;;;;;;;15.23;5.85;;;26.50;25.10;;;;;;6375065;27;20122;-79
2022/03/22 12:45:01;;;;;;;16.58;6.70;;;26.40;25.50;;;;;;6373839;27;20047;-79
2022/03/22 12:48:03;;;;;;;14.75;5.80;;;26.50;25.60;;;;;;6368727;27;20043;-79
2022/03/22 12:51:05;;;;;;;9.05;5.97;;;26.80;25.40;;;;;;6369544;27;20184;-80
2022/03/22 12:54:09;;;;;;;15.27;6.38;;;26.90;25.10;;;;;;6376481;27;20075;-79
2022/03/22 12:57:13;;;;;;;9.73;5.82;;;27.00;24.90;;;;;;6362928;27;20445;-78
2022/03/22 13:00:28;;;;;;;12.23;5.13;;;27.10;24.10;;;;;;6377834;27;20047;-80
2022/03/22 13:03:30;;;;;;;10.32;4.80;;;27.10;24.20;;;;;;6377094;27;20043;-80
2022/03/22 13:06:33;;;;;;;7.10;4.35;;;27.20;23.50;;;;;;6377554;27;20043;-79
2022/03/22 13:12:55;;;;;;;10.18;4.43;;;27.30;23.00;;;;;;6381733;27;20039;-78
2022/03/22 13:15:59;;;;;;;8.73;4.45;;;27.40;22.90;;;;;;6379679;27;20058;-78
2022/03/22 13:19:02;;;;;;;9.25;4.05;;;27.40;22.60;;;;;;6366320;27;20045;-79
2022/03/22 13:22:04;;;;;;;9.32;3.85;;;27.30;22.20;;;;;;6379386;27;20130;-78
2022/03/22 13:25:09;;;;;;;8.38;4.10;;;27.30;22.00;;;;;;6379616;27;20404;-78
2022/03/22 13:28:12;;;;;;;7.25;3.97;;;27.30;22.10;;;;;;6383944;27;20421;-79
2022/03/22 13:31:22;;;;;;;9.18;4.15;;;27.20;22.20;;;;;;6378767;27;20145;-79
2022/03/22 13:34:26;;;;;;;6.35;3.10;;;27.20;22.10;;;;;;6376358;27;20046;-79
2022/03/22 13:37:27;;;;;;;8.20;3.38;;;27.20;21.70;;;;;;6378265;27;20047;-79
2022/03/22 13:40:36;;;;;;;6.15;3.72;;;27.30;22.10;;;;;;6378289;27;20053;-79
2022/03/22 13:43:45;;;;;;;7.72;4.10;;;27.30;22.00;;;;;;6377102;27;20173;-79
2022/03/22 13:46:52;;;;;;;8.43;4.80;;;27.40;22.30;;;;;;6371919;27;20044;-79
2022/03/22 13:49:55;;;;;;;9.57;4.20;;;27.50;22.10;;;;;;6365831;27;20051;-79
2022/03/22 13:53:04;;;;;;;8.45;3.63;;;27.50;22.20;;;;;;6376556;28;20059;-79
2022/03/22 13:56:08;;;;;;;5.85;3.45;;;27.50;22.10;;;;;;6375016;28;20064;-79
2022/03/22 13:59:11;;;;;;;5.85;3.97;;;27.50;22.10;;;;;;6369370;28;20047;-79
2022/03/22 14:02:14;;;;;;;10.45;4.30;;;27.60;22.00;;;;;;6376388;28;20043;-79
2022/03/22 14:05:16;;;;;;;11.63;4.32;;;27.60;22.20;;;;;;6376479;28;20191;-79
2022/03/22 14:08:19;;;;;;;8.35;3.88;;;27.50;21.90;;;;;;6375892;28;20065;-79
2022/03/22 14:11:21;;;;;;;7.00;3.80;;;27.40;22.80;;;;;;6374186;28;20050;-79
2022/03/22 14:14:23;;;;;;;9.98;4.28;;;27.30;22.20;;;;;;6374081;28;20522;-80
2022/03/22 14:17:26;;;;;;;6.13;3.83;;;27.30;22.10;;;;;;6365115;28;20043;-80
2022/03/22 14:20:29;;;;;;;10.65;4.90;;;27.20;22.30;;;;;;6357307;28;20047;-79
2022/03/22 14:23:30;;;;;;;7.28;3.67;;;27.20;22.40;;;;;;6368089;28;20385;-81
2022/03/22 14:26:32;;;;;;;13.68;4.55;;;27.10;22.40;;;;;;6371237;28;20576;-82
2022/03/22 14:29:34;;;;;;;10.38;4.15;;;27.20;22.10;;;;;;6372275;28;20054;-80
2022/03/22 14:32:37;;;;;;;10.32;5.07;;;27.20;22.10;;;;;;6374101;28;20049;-81
2022/03/22 14:35:51;;;;;;;12.77;5.03;;;27.10;21.90;;;;;;6372468;28;20517;-80
2022/03/22 14:38:53;;;;;;;18.15;4.93;;;26.90;22.70;;;;;;6373229;28;20044;-80
2022/03/22 14:41:55;;;;;;;11.05;5.00;;;26.70;22.20;;;;;;6373711;28;20043;-81
2022/03/22 14:44:57;;;;;;;7.15;5.13;;;26.70;22.30;;;;;;6373687;28;20039;-80
2022/03/22 14:48:00;;;;;;;8.40;5.00;;;26.80;22.10;;;;;;6366743;27;20043;-80
2022/03/22 14:51:02;;;;;;;10.57;4.65;;;26.90;22.20;;;;;;6368435;27;20075;-81
2022/03/22 14:54:03;;;;;;;8.65;4.82;;;26.90;22.10;;;;;;6376308;27;20047;-81
2022/03/22 15:00:24;;;;;;;16.45;4.85;;;26.90;22.30;;;;;;6373512;27;20035;-81
2022/03/22 15:03:27;;;;;;;23.55;5.47;;;26.60;23.00;;;;;;6376322;27;20133;-80
2022/03/22 15:06:31;;;;;;;12.10;5.20;;;26.60;22.50;;;;;;6375650;27;20039;-82
2022/03/22 15:09:33;;;;;;;10.77;5.20;;;26.50;22.30;;;;;;6378801;27;20547;-82
2022/03/22 15:12:35;;;;;;;19.23;5.65;;;26.40;22.50;;;;;;6376139;27;20140;-81
2022/03/22 15:15:39;;;;;;;9.93;6.10;;;26.30;22.60;;;;;;6375262;27;20134;-83
2022/03/22 15:18:42;;;;;;;12.50;5.05;;;26.10;22.70;;;;;;6367020;27;20512;-80
2022/03/22 15:21:44;;;;;;;12.05;5.32;;;25.90;22.90;;;;;;6353493;27;20046;-80
2022/03/22 15:24:47;;;;;;;12.98;5.38;;;25.70;22.70;;;;;;6348821;28;20044;-81
2022/03/22 15:27:50;;;;;;;12.55;6.07;;;25.30;22.90;;;;;;6363147;27;20047;-81
2022/03/22 15:30:52;;;;;;;18.10;5.60;;;24.80;23.10;;;;;;6350440;28;20390;-80
2022/03/22 15:33:56;;;;;;;15.40;7.90;;;24.30;23.50;;;;;;6351133;28;20044;-80
2022/03/22 15:36:57;;;;;;;14.45;7.38;;;23.80;24.00;;;;;;6349576;28;20043;-79
2022/03/22 15:39:59;;;;;;;15.68;7.60;;;23.40;24.60;;;;;;6348729;28;20398;-80
2022/03/22 15:43:02;;;;;;;17.58;6.50;;;23.00;25.00;;;;;;6351087;28;20044;-79
2022/03/22 15:46:06;;;;;;;11.68;7.07;;;22.60;25.50;;;;;;6348298;28;20054;-79
2022/03/22 15:49:09;;;;;;;15.63;8.43;;;22.30;25.90;;;;;;6363860;27;20039;-80
2022/03/22 15:52:11;;;;;;;19.05;10.65;;;21.90;26.50;;;;;;6349429;27;20416;-80
2022/03/22 15:55:15;;;;;;;17.52;8.82;;;21.60;27.10;;;;;;6349545;28;20123;-80
2022/03/22 15:58:17;;;;;;;15.00;7.65;;;21.30;27.40;;;;;;6350474;27;20042;-79
2022/03/22 16:01:19;;;;;;;21.80;11.05;;;21.00;27.50;;;;;;6373639;27;20048;-81
2022/03/22 16:04:22;;;;;;;18.05;9.85;;;20.80;27.60;;;;;;6376634;27;20054;-81
2022/03/22 16:07:24;;;;;;;20.05;7.70;;;20.60;28.00;;;;;;6377202;27;20051;-79
2022/03/22 16:10:25;;;;;;;12.07;7.15;;;20.30;28.40;;;;;;6377614;27;20050;-80
2022/03/22 16:13:27;;;;;;;13.45;7.43;;;20.10;28.40;;;;;;6375370;27;20039;-80
2022/03/22 16:16:29;;;;;;;13.30;6.68;;;19.90;28.50;;;;;;6373509;27;20165;-80
2022/03/22 16:19:33;;;;;;;9.73;6.68;;;19.70;28.50;;;;;;6359985;27;20052;-79
2022/03/22 16:22:35;;;;;;;14.77;7.07;;;19.60;28.60;;;;;;6375213;27;20039;-80
2022/03/22 16:25:37;;;;;;;10.35;5.90;;;19.40;28.80;;;;;;6374975;27;20415;-79
2022/03/22 16:28:40;;;;;;;15.18;6.32;;;19.30;29.10;;;;;;6375811;27;20058;-79
2022/03/22 16:31:41;;;;;;;11.25;5.63;;;19.20;29.20;;;;;;6374944;27;20661;-79
2022/03/22 16:38:04;;;;;;;9.25;5.85;;;18.90;28.70;;;;;;6374924;27;20055;-79
2022/03/22 16:41:06;;;;;;;11.50;5.38;;;18.80;28.90;;;;;;6374825;27;20058;-79
2022/03/22 16:44:09;;;;;;;9.93;6.15;;;18.70;28.70;;;;;;6375333;27;20043;-80
2022/03/22 16:47:14;;;;;;;12.48;6.00;;;18.50;28.30;;;;;;6359230;27;20048;-79
2022/03/22 16:50:18;;;;;;;10.65;5.25;;;18.40;28.60;;;;;;6353432;27;20043;-81
2022/03/22 16:53:22;;;;;;;12.27;6.75;;;18.40;28.60;;;;;;6349032;28;20047;-79
2022/03/22 16:56:24;;;;;;;11.65;5.70;;;18.20;28.70;;;;;;6347918;28;20081;-79
2022/03/22 16:59:26;;;;;;;9.75;4.97;;;18.20;28.90;;;;;;6351256;27;20043;-82